Time;durP1;ratioP1;P1;durP2;ratioP2;P2;SDS_P1;SDS_P2;PMS_P1;PMS_P2;Temp;Humidity;BMP_temperature;BMP_pressure;BME280_temperature;BME280_humidity;BME280_pressure;Samples;Min_cycle;Max_cycle;Signal;HPM_P1;HPM_P2
2023/10/23 00:02:22;;;;;;;4.30;3.90;;;;;;;13.18;75.81;95299.72;6024417;23;20596;-89
2023/10/23 00:05:05;;;;;;;4.43;4.03;;;;;;;13.13;75.64;95296.91;6154615;23;20203;-89
2023/10/23 00:07:59;;;;;;;5.83;4.27;;;;;;;13.12;75.46;95297.88;6155036;23;20495;-88
2023/10/23 00:10:44;;;;;;;6.00;4.50;;;;;;;13.08;75.48;95294.13;6154733;23;20179;-89
2023/10/23 00:13:21;;;;;;;4.33;3.90;;;;;;;12.98;75.89;95298.88;6156039;23;20155;-88
2023/10/23 00:19:02;;;;;;;4.80;4.33;;;;;;;12.88;76.30;95301.88;6125545;23;20634;-88
2023/10/23 00:21:48;;;;;;;4.73;4.10;;;;;;;12.69;77.92;95337.03;6155064;23;20627;-87
2023/10/23 00:24:17;;;;;;;4.47;4.00;;;;;;;12.67;78.26;95344.16;6155971;23;20278;-87
2023/10/23 00:26:48;;;;;;;4.70;4.20;;;;;;;12.65;78.92;95359.06;6154296;23;20171;-88
2023/10/23 00:29:14;;;;;;;5.47;4.23;;;;;;;12.55;79.62;95373.31;6155592;23;20206;-90
2023/10/23 00:31:59;;;;;;;4.47;3.77;;;;;;;12.40;81.14;95399.28;6152773;23;20201;-88
2023/10/23 00:34:26;;;;;;;4.47;4.07;;;;;;;12.45;80.71;95400.31;6154535;23;20191;-87
2023/10/23 00:36:57;;;;;;;4.50;3.80;;;;;;;12.45;80.67;95407.25;6154247;23;20217;-89
2023/10/23 00:39:33;;;;;;;5.20;3.90;;;;;;;12.51;80.05;95398.72;6153662;23;20171;-87
2023/10/23 00:42:37;;;;;;;;;;;;;;;;;;;;;
2023/10/23 00:48:12;;;;;;;4.80;3.93;;;;;;;12.72;78.34;95361.63;6148973;23;20258;-88
2023/10/23 00:50:41;;;;;;;4.27;3.60;;;;;;;12.73;78.31;95356.28;6154614;23;20202;-90
2023/10/23 00:53:28;;;;;;;5.50;3.80;;;;;;;12.76;77.47;95337.81;6155549;23;20167;-88
2023/10/23 00:56:28;;;;;;;4.37;3.80;;;;;;;12.76;77.38;95329.25;6154470;23;20255;-88
2023/10/23 00:59:15;;;;;;;4.60;4.10;;;;;;;12.81;76.86;95321.72;6154252;23;20550;-88
2023/10/23 01:02:02;;;;;;;4.10;3.60;;;;;;;12.80;76.63;95317.56;6154539;23;20193;-88
2023/10/23 01:05:00;;;;;;;4.47;4.07;;;;;;;12.62;77.47;95337.97;6154326;23;20261;-88
2023/10/23 01:07:34;;;;;;;3.87;3.40;;;;;;;12.62;77.63;95343.94;6153053;23;20748;-89
2023/10/23 01:16:17;;;;;;;5.47;4.03;;;;;;;12.65;77.61;95347.94;6151056;23;20171;-90
2023/10/23 01:19:00;;;;;;;4.30;3.90;;;;;;;12.55;77.89;95361.19;6153916;23;20163;-88
2023/10/23 01:22:07;;;;;;;4.90;4.23;;;;;;;12.55;78.21;95379.28;6154203;23;20274;-88
2023/10/23 01:24:48;;;;;;;5.73;4.10;;;;;;;12.56;77.50;95355.03;6153512;23;20218;-87
2023/10/23 01:27:28;;;;;;;5.40;4.10;;;;;;;12.30;79.26;95399.66;6153976;23;20163;-90
2023/10/23 01:29:59;;;;;;;4.27;3.87;;;;;;;12.21;80.38;95415.47;6153784;23;20151;-90
2023/10/23 01:32:38;;;;;;;4.80;3.10;;;;;;;12.25;79.76;95407.16;6153369;23;20233;-89
2023/10/23 01:35:05;;;;;;;5.07;3.63;;;;;;;12.32;79.04;95392.47;6153409;23;20190;-89
2023/10/23 01:37:34;;;;;;;4.00;3.60;;;;;;;12.30;78.90;95396.28;6155178;23;20189;-89
2023/10/23 01:40:08;;;;;;;4.27;3.70;;;;;;;12.40;78.56;95392.34;6153493;23;20211;-87
2023/10/23 01:42:59;;;;;;;5.83;3.40;;;;;;;12.43;78.40;95380.81;6150292;23;20181;-88
2023/10/23 01:45:28;;;;;;;3.70;3.20;;;;;;;12.42;78.37;95385.19;6155870;23;20199;-88
2023/10/23 01:48:06;;;;;;;3.87;3.47;;;;;;;12.42;78.20;95387.78;6155611;23;20189;-88
2023/10/23 01:50:33;;;;;;;4.03;3.07;;;;;;;12.43;78.03;95384.19;6156099;23;20175;-88
2023/10/23 01:53:30;;;;;;;;;;;;;;;;;;;;;
2023/10/23 01:56:20;;;;;;;3.43;3.10;;;;;;;12.36;78.04;95380.00;6114007;23;20748;-87
2023/10/23 01:59:02;;;;;;;3.77;3.23;;;;;;;12.25;78.95;95394.25;6081699;23;20195;-88
2023/10/23 02:05:05;;;;;;;4.37;3.00;;;;;;;12.10;80.14;95419.41;6113970;23;20191;-88
2023/10/23 02:08:02;;;;;;;4.50;3.43;;;;;;;12.09;80.46;95421.19;6126217;23;20179;-89
2023/10/23 02:10:51;;;;;;;4.10;3.70;;;;;;;12.03;80.61;95416.75;6114115;23;20254;-89
2023/10/23 02:13:32;;;;;;;4.17;3.60;;;;;;;11.76;82.27;95440.78;6125826;23;20266;-90
2023/10/23 02:16:26;;;;;;;4.80;3.73;;;;;;;11.44;83.86;95452.38;6127272;23;20198;-89
2023/10/23 02:18:52;;;;;;;3.53;3.23;;;;;;;11.52;83.77;95459.22;6127276;23;20199;-88
2023/10/23 02:21:19;;;;;;;3.50;3.20;;;;;;;11.61;83.17;95468.41;6126766;23;20180;-88
2023/10/23 02:23:50;;;;;;;4.53;3.10;;;;;;;11.68;82.96;95469.25;6126653;23;20180;-89
2023/10/23 02:26:16;;;;;;;3.40;3.00;;;;;;;11.74;82.15;95445.28;6126603;23;20164;-87
2023/10/23 02:28:50;;;;;;;3.53;2.90;;;;;;;11.83;81.61;95423.56;6126437;23;20187;-88
2023/10/23 02:31:20;;;;;;;3.40;3.10;;;;;;;11.92;80.98;95414.72;6125931;23;20511;-88
2023/10/23 02:33:46;;;;;;;3.43;2.87;;;;;;;11.98;80.46;95406.19;6126968;23;20291;-88
2023/10/23 02:39:10;;;;;;;5.40;3.40;;;;;;;11.86;80.83;95394.81;6121362;23;20254;-88
2023/10/23 02:41:46;;;;;;;;;;;;;;;;;;;;;
2023/10/23 02:44:55;;;;;;;4.43;3.10;;;;;;;11.39;83.25;95437.47;6096663;23;20266;-90
2023/10/23 02:47:44;;;;;;;3.77;2.90;;;;;;;11.48;83.48;95440.72;6101074;23;20172;-89
2023/10/23 02:50:22;;;;;;;3.53;3.17;;;;;;;11.55;83.14;95436.41;6128404;23;20175;-87
2023/10/23 02:52:51;;;;;;;3.50;2.90;;;;;;;11.65;82.48;95424.00;6127820;23;20204;-88
2023/10/23 02:55:45;;;;;;;4.87;3.20;;;;;;;11.73;82.05;95418.72;6148087;23;20589;-88
2023/10/23 02:58:20;;;;;;;3.20;2.80;;;;;;;11.84;81.32;95409.69;6140280;23;20201;-87
2023/10/23 03:01:02;;;;;;;4.53;3.03;;;;;;;11.96;80.52;95389.31;6157101;23;20171;-87
2023/10/23 03:03:45;;;;;;;3.70;2.80;;;;;;;11.89;80.32;95371.22;6157730;23;20258;-89
2023/10/23 03:06:42;;;;;;;3.60;3.30;;;;;;;11.81;79.83;95371.38;6155860;23;20179;-89
2023/10/23 03:09:23;;;;;;;3.37;3.00;;;;;;;11.77;80.30;95380.47;6157063;23;20175;-87
2023/10/23 03:11:56;;;;;;;3.60;3.30;;;;;;;11.89;80.00;95386.72;6156956;23;20266;-87
2023/10/23 03:14:26;;;;;;;4.63;3.07;;;;;;;11.99;79.61;95389.75;6157537;23;20222;-89
2023/10/23 03:17:11;;;;;;;;;;;;;;;;;;;;;
2023/10/23 03:20:04;;;;;;;3.87;2.97;;;;;;;11.75;78.65;95367.72;6156493;23;20242;-89
2023/10/23 03:22:33;;;;;;;3.47;2.93;;;;;;;11.72;79.81;95372.50;6147122;23;20565;-88
2023/10/23 03:25:00;;;;;;;5.10;3.13;;;;;;;11.71;79.62;95382.00;6156809;23;20187;-87
2023/10/23 03:27:32;;;;;;;3.87;2.93;;;;;;;11.73;79.32;95374.09;6156040;23;20186;-89
2023/10/23 03:30:07;;;;;;;3.27;2.97;;;;;;;11.72;79.11;95364.75;6155462;23;20183;-88
2023/10/23 03:35:29;;;;;;;5.20;3.13;;;;;;;11.56;79.99;95385.63;6156062;23;20256;-88
2023/10/23 03:41:18;;;;;;;4.00;3.27;;;;;;;11.70;79.93;95385.56;6158825;23;20177;-88
2023/10/23 03:43:47;;;;;;;3.43;3.00;;;;;;;11.75;79.56;95388.34;6160229;23;20175;-89
2023/10/23 03:46:35;;;;;;;3.80;3.10;;;;;;;11.69;79.53;95396.88;6155622;23;20618;-87
2023/10/23 03:49:12;;;;;;;5.30;3.43;;;;;;;11.66;79.46;95392.06;6155047;23;20175;-88
2023/10/23 03:52:01;;;;;;;5.10;3.10;;;;;;;11.70;78.85;95385.56;6154917;23;20698;-88
2023/10/23 03:54:29;;;;;;;3.37;2.87;;;;;;;11.69;78.65;95383.16;6155454;23;20566;-87
2023/10/23 03:57:15;;;;;;;;;;;;;;;;;;;;;
2023/10/23 03:59:44;;;;;;;3.20;2.90;;;;;;;11.60;78.42;95369.59;6155616;23;20167;-88
2023/10/23 04:02:35;;;;;;;4.33;2.80;;;;;;;11.53;78.57;95362.84;6153972;23;20714;-89
2023/10/23 04:05:11;;;;;;;3.40;2.80;;;;;;;11.48;78.17;95353.06;6153662;23;20195;-89
2023/10/23 04:07:53;;;;;;;3.63;3.00;;;;;;;11.37;78.53;95362.09;6153298;23;20242;-87
2023/10/23 04:10:23;;;;;;;3.47;3.00;;;;;;;11.34;78.50;95359.91;6153850;23;20230;-86
2023/10/23 04:12:52;;;;;;;4.00;3.03;;;;;;;11.33;78.41;95363.47;6153203;23;20209;-88
2023/10/23 04:15:28;;;;;;;2.93;2.63;;;;;;;11.38;78.53;95368.06;6153914;23;20546;-88
2023/10/23 04:18:03;;;;;;;4.00;2.90;;;;;;;11.44;77.97;95357.00;6154831;23;20194;-88
2023/10/23 04:20:46;;;;;;;3.57;2.77;;;;;;;11.51;77.70;95341.59;6154755;23;20165;-87
2023/10/23 04:23:14;;;;;;;3.47;3.00;;;;;;;11.47;76.72;95312.00;6155194;23;20226;-88
2023/10/23 04:25:41;;;;;;;4.63;3.10;;;;;;;11.41;76.75;95308.41;6153650;23;20194;-88
2023/10/23 04:28:26;;;;;;;4.00;3.53;;;;;;;11.38;76.88;95301.03;6154264;23;20241;-89
2023/10/23 04:30:55;;;;;;;4.63;2.90;;;;;;;11.35;76.61;95289.31;6153475;23;20230;-90
2023/10/23 04:33:25;;;;;;;3.47;2.90;;;;;;;11.30;76.85;95298.63;6154627;23;20222;-85
2023/10/23 04:35:52;;;;;;;3.87;2.87;;;;;;;11.29;77.04;95310.69;6154302;23;20195;-86
2023/10/23 04:38:20;;;;;;;3.30;3.00;;;;;;;11.28;77.53;95319.41;6154034;23;20179;-86
2023/10/23 04:40:53;;;;;;;3.37;2.87;;;;;;;11.57;82.37;95423.34;6152285;23;20181;-87
2023/10/23 04:43:38;;;;;;;4.60;3.30;;;;;;;11.74;78.17;95324.06;6152603;23;20175;-87
2023/10/23 04:46:05;;;;;;;5.60;3.10;;;;;;;11.88;77.68;95320.63;6153617;23;20163;-88
2023/10/23 04:51:44;;;;;;;3.30;3.00;;;;;;;11.84;75.07;95244.59;6058502;23;20562;-89
2023/10/23 05:42:06;;;;;;;4.23;3.50;;;;;;;11.01;78.91;95345.94;6175790;23;20562;-92
2023/10/23 05:45:09;;;;;;;;;;;;;;;;;;;;;
2023/10/23 05:48:40;;;;;;;;;;;;;;;;;;;;;
2023/10/23 06:00:14;;;;;;;6.23;4.27;;;;;;;11.11;79.79;95379.94;6213881;22;20208;-90
2023/10/23 06:02:44;;;;;;;4.60;3.37;;;;;;;11.06;79.25;95365.03;6191805;23;20174;-89
2023/10/23 06:18:36;;;;;;;6.30;4.73;;;;;;;11.28;78.50;95383.06;6192256;23;20629;-88
2023/10/23 06:38:57;;;;;;;5.23;3.93;;;;;;;11.53;80.60;95430.66;6055556;23;20187;-90
2023/10/23 06:41:44;;;;;;;6.47;4.67;;;;;;;11.66;79.34;95404.19;6060942;23;20200;-88
2023/10/23 06:44:34;;;;;;;5.77;3.90;;;;;;;11.55;80.08;95418.34;6061266;23;20205;-87
2023/10/23 06:47:23;;;;;;;4.90;4.10;;;;;;;11.49;80.50;95426.84;6061670;23;20684;-87
2023/10/23 06:49:51;;;;;;;4.50;4.10;;;;;;;11.51;81.11;95440.38;6181845;23;20232;-87
2023/10/23 06:52:20;;;;;;;7.03;4.10;;;;;;;11.42;82.71;95480.13;6180309;23;20236;-87
2023/10/23 06:54:55;;;;;;;65.87;52.90;;;;;;;11.38;84.12;95497.72;6181298;23;20198;-88
2023/10/23 06:57:36;;;;;;;44.17;36.53;;;;;;;11.57;84.75;95505.84;6181342;23;20177;-87
2023/10/23 07:00:03;;;;;;;19.77;16.70;;;;;;;11.72;83.82;95476.44;6180696;23;20200;-87
2023/10/23 07:02:32;;;;;;;11.17;8.17;;;;;;;11.91;83.40;95469.88;6180781;23;20182;-88
2023/10/23 07:05:08;;;;;;;9.03;5.30;;;;;;;12.01;82.53;95461.78;6180496;23;20285;-88
2023/10/23 07:07:34;;;;;;;6.43;4.57;;;;;;;12.01;82.38;95454.06;6180900;23;20174;-88
2023/10/23 07:10:01;;;;;;;6.93;4.83;;;;;;;12.18;82.14;95447.63;6181084;23;20178;-88
2023/10/23 07:12:51;;;;;;;6.70;5.37;;;;;;;12.56;81.41;95445.44;6180605;23;20194;-89
2023/10/23 07:18:10;;;;;;;7.40;4.57;;;;;;;13.32;76.98;95349.63;6088550;23;20172;-89
2023/10/23 07:31:19;;;;;;;4.67;3.83;;;;;;;15.11;69.80;95201.06;6009185;23;20177;-89
2023/10/23 07:33:51;;;;;;;4.40;4.00;;;;;;;15.70;67.96;95165.13;6043511;23;20400;-88
2023/10/23 07:36:31;;;;;;;6.05;3.65;;;;;;;15.99;65.14;95036.31;6118643;23;20267;-88
2023/10/23 07:39:27;;;;;;;2.83;2.10;;;;;;;16.09;61.71;94881.56;6118226;23;20195;-90
2023/10/23 08:11:24;;;;;;;2.05;1.88;;;;;;;14.16;69.91;95130.44;5988116;23;20186;-91
2023/10/23 08:16:41;;;;;;;5.28;1.88;;;;;;;15.30;65.83;94993.56;6162260;23;20186;-90
2023/10/23 08:22:45;;;;;;;3.50;1.88;;;;;;;14.76;66.33;94988.25;6122044;23;20206;-89
2023/10/23 08:32:18;;;;;;;1.98;1.75;;;;;;;14.93;66.80;95023.94;6016904;23;20658;-89
2023/10/23 08:42:31;;;;;;;1.65;1.40;;;;;;;15.70;63.32;94875.25;5861080;24;20185;-89
2023/10/23 08:45:18;;;;;;;2.65;1.63;;;;;;;15.99;64.44;94950.63;5778731;24;20212;-87
2023/10/23 08:47:45;;;;;;;2.17;1.45;;;;;;;16.32;61.93;94856.56;5918232;24;20180;-88
2023/10/23 08:50:15;;;;;;;4.20;1.67;;;;;;;16.48;60.42;94775.28;6010316;23;20225;-88
2023/10/23 08:53:18;;;;;;;2.15;1.70;;;;;;;16.51;60.35;94757.44;6030486;23;20209;-89
2023/10/23 08:55:48;;;;;;;3.58;1.80;;;;;;;16.49;60.44;94758.69;6135519;23;20601;-88
2023/10/23 08:58:48;;;;;;;3.28;1.83;;;;;;;16.46;61.14;94790.31;6150014;23;20635;-89
2023/10/23 09:01:22;;;;;;;2.83;1.50;;;;;;;16.13;60.71;94741.66;6149663;23;20167;-88
2023/10/23 09:04:02;;;;;;;2.13;1.40;;;;;;;15.76;61.56;94788.69;6150648;23;20155;-89
2023/10/23 09:06:58;;;;;;;3.05;1.60;;;;;;;15.73;62.35;94822.91;6150452;23;20159;-89
2023/10/23 09:10:20;;;;;;;2.67;1.55;;;;;;;15.73;62.11;94796.16;6102385;23;20262;-88
2023/10/23 09:12:58;;;;;;;1.60;1.50;;;;;;;16.10;62.06;94804.44;6142303;23;20253;-89
2023/10/23 09:18:08;;;;;;;1.50;1.40;;;;;;;16.35;60.94;94736.59;6134000;23;20186;-89
2023/10/23 09:21:03;;;;;;;1.73;1.50;;;;;;;16.36;61.01;94738.94;6149382;23;20261;-88
2023/10/23 09:23:53;;;;;;;3.83;1.73;;;;;;;16.20;61.89;94787.22;6149821;23;20242;-87
2023/10/23 09:26:22;;;;;;;4.43;1.48;;;;;;;16.14;61.88;94761.41;6117976;23;20182;-87
2023/10/23 09:32:16;;;;;;;3.08;1.92;;;;;;;16.26;60.69;94725.00;6029517;23;20545;-90
2023/10/23 09:34:58;;;;;;;;;;;;;;;;;;;;;
2023/10/23 09:44:00;;;;;;;3.10;1.15;;;;;;;15.92;61.03;94737.09;6147782;23;20245;-90
2023/10/23 09:49:30;;;;;;;;;;;;;;;;;;;;;
2023/10/23 09:58:57;;;;;;;1.35;1.10;;;;;;;16.02;61.15;94747.66;6075636;23;20210;-91
2023/10/23 10:05:04;;;;;;;1.90;1.00;;;;;;;16.07;62.02;94797.09;6112124;23;20190;-89
2023/10/23 10:08:08;;;;;;;1.42;1.30;;;;;;;15.99;61.02;94743.72;6155103;23;20545;-88
2023/10/23 10:10:36;;;;;;;1.05;1.00;;;;;;;16.08;61.59;94757.13;6152882;23;20241;-88
2023/10/23 10:13:28;;;;;;;2.17;1.00;;;;;;;16.05;61.62;94765.38;6152394;23;20590;-91
2023/10/23 10:25:20;;;;;;;1.35;1.23;;;;;;;16.18;60.86;94729.53;6036591;23;20536;-86
2023/10/23 10:28:22;;;;;;;2.08;1.50;;;;;;;16.15;61.10;94737.81;6154248;23;20167;-89
2023/10/23 10:30:50;;;;;;;1.38;1.20;;;;;;;16.24;60.95;94731.22;6152885;23;20162;-89
2023/10/23 10:34:08;;;;;;;2.83;1.40;;;;;;;16.36;60.58;94699.19;6153663;23;20211;-91
2023/10/23 10:36:49;;;;;;;2.33;2.00;;;;;;;16.40;60.50;94698.50;6005402;23;20178;-89
2023/10/23 10:43:37;;;;;;;1.20;1.10;;;;;;;16.42;59.93;94634.09;6154049;23;20283;-91
2023/10/23 10:46:30;;;;;;;1.30;1.20;;;;;;;16.28;60.47;94645.03;6032557;23;20281;-89
2023/10/23 10:48:57;;;;;;;1.17;1.08;;;;;;;16.21;60.66;94645.97;6088968;23;20198;-91
2023/10/23 10:54:50;;;;;;;1.00;1.00;;;;;;;16.27;59.98;94635.66;6076042;23;20554;-91
2023/10/23 11:14:50;;;;;;;1.55;1.45;;;;;;;16.22;61.38;94665.72;6030644;23;20283;-90
2023/10/23 11:18:01;;;;;;;2.00;1.38;;;;;;;16.30;61.75;94700.13;6150211;23;20167;-90
2023/10/23 11:56:23;;;;;;;2.47;1.65;;;;;;;16.73;60.60;94617.22;5891971;23;20208;-92
2023/10/23 12:06:23;;;;;;;;;;;;;;;;;;;;;
2023/10/23 12:16:09;;;;;;;5.53;4.30;;;;;;;16.81;62.05;94676.56;5790310;24;20587;-88
2023/10/23 12:22:22;;;;;;;1.63;1.38;;;;;;;16.81;60.11;94558.81;6056229;23;20188;-89
2023/10/23 12:25:27;;;;;;;2.33;1.40;;;;;;;16.69;60.95;94603.09;6059058;23;20193;-89
2023/10/23 12:28:13;;;;;;;2.50;2.30;;;;;;;16.66;61.36;94628.78;6101015;23;20179;-89
2023/10/23 12:30:58;;;;;;;1.80;1.35;;;;;;;16.69;62.04;94657.69;6127446;23;20179;-89
2023/10/23 12:33:34;;;;;;;2.58;2.38;;;;;;;16.80;61.92;94675.00;6147181;23;20258;-89
2023/10/23 12:36:14;;;;;;;3.03;2.60;;;;;;;16.84;62.18;94691.72;6149961;23;20213;-89
2023/10/23 12:46:09;;;;;;;2.92;2.58;;;;;;;17.19;61.32;94639.41;6149959;23;20202;-89
2023/10/23 12:48:57;;;;;;;1.85;1.75;;;;;;;17.19;61.26;94631.59;6131588;23;20626;-87
2023/10/23 12:51:32;;;;;;;2.45;1.42;;;;;;;17.15;60.47;94601.09;6138488;23;20203;-88
2023/10/23 12:54:10;;;;;;;2.33;1.75;;;;;;;17.04;60.90;94615.81;6149615;23;20186;-89
2023/10/23 13:00:13;;;;;;;1.52;1.40;;;;;;;17.20;61.01;94629.78;6087428;23;20180;-89
2023/10/23 13:02:57;;;;;;;1.73;1.63;;;;;;;17.24;60.88;94610.88;6139079;23;20171;-88
2023/10/23 13:06:28;;;;;;;;;;;;;;;;;;;;;
2023/10/23 13:09:07;;;;;;;2.00;1.30;;;;;;;17.27;61.25;94607.00;6143898;23;20250;-90
2023/10/23 13:11:57;;;;;;;3.33;1.45;;;;;;;17.12;61.28;94586.00;6149683;23;20210;-89
2023/10/23 13:14:30;;;;;;;2.35;1.20;;;;;;;17.10;61.52;94603.66;6148795;23;20199;-89
2023/10/23 13:20:10;;;;;;;2.17;1.30;;;;;;;17.53;61.03;94608.06;6133019;23;20534;-89
2023/10/23 13:26:37;;;;;;;2.15;1.80;;;;;;;17.59;60.45;94562.84;6071288;23;20243;-90
2023/10/23 13:29:36;;;;;;;1.80;1.70;;;;;;;17.48;59.96;94529.94;6075628;23;20687;-89
2023/10/23 13:32:05;;;;;;;1.40;1.30;;;;;;;17.40;59.93;94522.56;6088852;23;20164;-87
2023/10/23 13:34:41;;;;;;;1.50;1.20;;;;;;;17.38;60.36;94561.06;6138051;23;20734;-88
2023/10/23 13:37:08;;;;;;;3.05;1.55;;;;;;;17.43;60.63;94561.91;6149426;23;20196;-87
2023/10/23 13:42:20;;;;;;;2.70;1.20;;;;;;;17.45;60.57;94539.03;6149226;23;20788;-87
2023/10/23 13:44:48;;;;;;;2.47;1.20;;;;;;;17.45;60.45;94527.84;6149320;23;20230;-87
2023/10/23 13:47:16;;;;;;;3.40;1.63;;;;;;;17.31;60.66;94537.84;6151207;23;20177;-87
2023/10/23 13:50:00;;;;;;;2.40;1.40;;;;;;;17.18;61.32;94562.41;6150566;23;20514;-89
2023/10/23 13:52:27;;;;;;;1.58;1.35;;;;;;;17.08;61.46;94553.69;6151006;23;20685;-87
2023/10/23 13:54:55;;;;;;;1.90;1.58;;;;;;;17.03;61.57;94549.22;6151568;23;20214;-87
2023/10/23 13:57:22;;;;;;;2.50;1.50;;;;;;;16.88;61.77;94560.22;6152147;23;20265;-86
2023/10/23 13:59:49;;;;;;;2.75;1.30;;;;;;;16.88;62.53;94578.41;6151696;23;20186;-87
2023/10/23 14:02:16;;;;;;;2.30;1.60;;;;;;;16.89;62.95;94587.78;6151886;23;20182;-86
2023/10/23 14:04:42;;;;;;;1.92;1.30;;;;;;;16.88;63.75;94625.22;6151050;23;20712;-86
2023/10/23 14:07:11;;;;;;;2.08;1.52;;;;;;;16.86;63.95;94635.06;6151214;23;20175;-86
2023/10/23 14:09:38;;;;;;;2.20;1.50;;;;;;;16.82;64.16;94626.16;6151591;23;20186;-87
2023/10/23 14:12:05;;;;;;;3.80;2.78;;;;;;;16.80;64.80;94640.41;6150894;23;20235;-87
2023/10/23 14:14:31;;;;;;;13.15;11.88;;;;;;;16.78;65.01;94658.84;6148870;23;20198;-86
2023/10/23 14:16:59;;;;;;;2.05;1.90;;;;;;;16.70;64.95;94661.06;6149435;23;20183;-87
2023/10/23 14:19:26;;;;;;;3.90;1.70;;;;;;;16.69;65.79;94695.88;6149786;23;20181;-86
2023/10/23 14:21:52;;;;;;;2.85;1.90;;;;;;;16.73;66.11;94712.59;6152351;23;20175;-87
2023/10/23 14:24:29;;;;;;;2.72;1.67;;;;;;;16.83;66.18;94710.13;6152189;23;20202;-86
2023/10/23 14:26:58;;;;;;;3.03;1.90;;;;;;;16.98;65.18;94678.38;6151489;23;20163;-88
2023/10/23 14:29:25;;;;;;;3.35;1.60;;;;;;;17.13;64.94;94665.56;6151219;23;20186;-87
2023/10/23 14:31:50;;;;;;;2.95;2.17;;;;;;;17.37;64.45;94646.13;6150049;23;20199;-87
2023/10/23 14:34:18;;;;;;;3.47;1.80;;;;;;;17.54;63.77;94615.63;6151178;23;20663;-87
2023/10/23 14:36:48;;;;;;;4.30;1.80;;;;;;;17.49;63.66;94607.00;6151851;23;20186;-87
2023/10/23 14:39:15;;;;;;;3.92;1.83;;;;;;;17.40;64.09;94606.63;6151826;23;20210;-87
2023/10/23 14:41:41;;;;;;;2.10;1.60;;;;;;;17.52;63.64;94607.28;6151505;23;20185;-87
2023/10/23 14:44:08;;;;;;;1.95;1.63;;;;;;;17.53;63.86;94606.25;6151939;23;20171;-87
2023/10/23 14:46:34;;;;;;;1.80;1.65;;;;;;;17.62;63.53;94601.41;6151467;23;20175;-89
2023/10/23 14:49:01;;;;;;;2.97;1.83;;;;;;;17.62;63.78;94583.19;6151857;23;20185;-88
2023/10/23 14:51:28;;;;;;;2.33;1.60;;;;;;;17.61;63.74;94579.00;6153465;23;20190;-87
2023/10/23 14:53:55;;;;;;;2.00;1.77;;;;;;;17.51;63.72;94568.50;6152470;23;20175;-88
2023/10/23 14:56:24;;;;;;;2.22;1.90;;;;;;;17.36;63.98;94581.31;6152360;23;20182;-88
2023/10/23 14:58:51;;;;;;;4.10;1.58;;;;;;;17.34;64.33;94584.16;6153676;23;20179;-89
2023/10/23 15:01:17;;;;;;;2.08;1.80;;;;;;;17.32;64.61;94604.44;6153985;23;20208;-87
2023/10/23 15:03:44;;;;;;;3.80;1.70;;;;;;;17.36;64.86;94607.34;6154544;23;20175;-88
2023/10/23 15:06:15;;;;;;;2.33;1.70;;;;;;;17.39;63.92;94571.22;6152709;23;20206;-87
2023/10/23 15:08:45;;;;;;;4.13;2.50;;;;;;;17.44;63.86;94549.69;6152398;23;20174;-88
2023/10/23 15:11:14;;;;;;;5.93;4.85;;;;;;;17.36;63.76;94555.31;6151743;23;20253;-88
2023/10/23 15:13:40;;;;;;;3.90;3.22;;;;;;;17.34;64.22;94559.97;6152942;23;20178;-88
2023/10/23 15:16:15;;;;;;;4.25;2.90;;;;;;;17.27;64.01;94567.97;6151296;23;20201;-87
2023/10/23 15:18:45;;;;;;;3.38;2.03;;;;;;;17.15;64.38;94573.28;6151954;23;20178;-89
2023/10/23 15:21:20;;;;;;;2.13;1.50;;;;;;;17.05;64.73;94588.78;6152983;23;20234;-87
2023/10/23 15:23:59;;;;;;;;;;;;;;;;;;;;;
2023/10/23 15:26:26;;;;;;;2.35;1.77;;;;;;;16.89;65.12;94592.19;6151423;23;20277;-88
2023/10/23 15:28:54;;;;;;;2.63;1.67;;;;;;;16.82;65.74;94604.56;6153340;23;20225;-82
2023/10/23 15:38:14;;;;;;;1.60;1.50;;;;;;;16.52;65.93;94608.28;6140602;23;20209;-89
2023/10/23 15:41:26;;;;;;;1.88;1.50;;;;;;;16.44;66.40;94603.47;6032008;23;20178;-88
2023/10/23 15:47:16;;;;;;;2.42;1.70;;;;;;;16.13;67.49;94635.97;6092833;23;20206;-88
2023/10/23 15:53:22;;;;;;;5.22;1.50;;;;;;;15.93;69.09;94664.16;6082322;23;20195;-83
2023/10/23 15:55:50;;;;;;;1.85;1.63;;;;;;;15.96;68.63;94666.31;6152769;23;20242;-88
2023/10/23 15:58:16;;;;;;;3.30;1.90;;;;;;;15.86;68.87;94671.28;6152890;23;20171;-87
2023/10/23 16:00:55;;;;;;;3.35;1.98;;;;;;;15.85;68.90;94672.31;6152290;23;20182;-88
2023/10/23 16:03:38;;;;;;;3.42;2.30;;;;;;;15.76;69.45;94668.53;6152394;23;20181;-88
2023/10/23 16:06:17;;;;;;;3.78;2.33;;;;;;;15.69;70.11;94701.59;6156288;23;20194;-88
2023/10/23 16:08:43;;;;;;;2.72;2.00;;;;;;;15.63;70.25;94692.13;6151464;23;20181;-87
2023/10/23 16:11:23;;;;;;;4.30;1.98;;;;;;;15.62;70.82;94700.91;6153602;23;20254;-86
2023/10/23 16:13:52;;;;;;;2.30;1.77;;;;;;;15.56;71.12;94709.63;6153594;23;20250;-89
2023/10/23 16:16:38;;;;;;;2.97;2.10;;;;;;;15.49;71.86;94720.88;6149820;23;20226;-88
2023/10/23 16:23:29;;;;;;;2.53;1.92;;;;;;;15.47;72.75;94745.47;6023851;23;20307;-88
2023/10/23 16:31:08;;;;;;;4.03;2.30;;;;;;;15.50;73.84;94770.97;6182921;23;20171;-90
2023/10/23 16:33:49;;;;;;;3.58;2.47;;;;;;;15.47;74.20;94780.00;6180441;23;20163;-87
2023/10/23 16:36:40;;;;;;;3.85;2.70;;;;;;;15.36;75.21;94801.53;6177144;23;20202;-88
2023/10/23 16:43:28;;;;;;;3.47;2.83;;;;;;;15.34;76.42;94820.94;6119806;23;20212;-91
2023/10/23 16:45:54;;;;;;;3.47;2.70;;;;;;;15.29;76.76;94836.38;6058138;23;20334;-84
2023/10/23 16:48:22;;;;;;;4.78;3.67;;;;;;;15.26;77.59;94852.38;6181138;23;20167;-89
2023/10/23 16:50:49;;;;;;;4.68;3.17;;;;;;;15.23;78.05;94868.38;6181163;23;20176;-84
2023/10/23 16:53:30;;;;;;;3.97;3.60;;;;;;;15.15;79.16;94888.44;6182357;23;20323;-87
2023/10/23 16:55:59;;;;;;;3.83;2.85;;;;;;;15.17;79.36;94891.63;6180016;23;20201;-88
2023/10/23 16:59:06;;;;;;;5.20;3.50;;;;;;;15.14;79.50;94892.06;6180709;23;20179;-87
2023/10/23 17:01:47;;;;;;;3.85;3.30;;;;;;;15.22;79.42;94885.75;6164873;23;20180;-91
2023/10/23 17:04:15;;;;;;;3.88;3.50;;;;;;;15.18;80.06;94900.19;6179748;23;20178;-86
2023/10/23 17:06:46;;;;;;;4.80;3.55;;;;;;;15.16;80.23;94894.44;6180393;23;20158;-89
2023/10/23 17:09:41;;;;;;;4.65;3.40;;;;;;;15.13;80.39;94905.22;6177556;23;20178;-87
2023/10/23 17:12:18;;;;;;;3.42;3.17;;;;;;;15.26;79.84;94894.66;6179531;23;20170;-87
2023/10/23 17:14:53;;;;;;;3.97;3.67;;;;;;;15.25;80.31;94897.47;6178555;23;20530;-88
2023/10/23 17:21:07;;;;;;;3.67;3.38;;;;;;;15.14;81.02;94915.38;6019656;23;20194;-87
2023/10/23 17:27:19;;;;;;;5.18;3.40;;;;;;;15.10;81.57;94919.44;5960275;24;20178;-90
2023/10/23 17:30:32;;;;;;;5.32;3.25;;;;;;;15.04;81.77;94912.53;5973005;24;20213;-90
2023/10/23 19:39:07;;;;;;;5.05;4.55;;;;;;;14.37;88.00;94905.75;6169202;23;20194;-88
2023/10/23 19:44:25;;;;;;;4.90;4.40;;;;;;;14.37;88.25;94916.91;6088209;23;20668;-88
2023/10/23 19:47:15;;;;;;;;;;;;;;;;;;;;;
2023/10/23 20:17:31;;;;;;;4.80;4.30;;;;;;;14.34;89.01;94935.47;6176521;22;20645;-89
2023/10/23 20:31:07;;;;;;;7.22;6.53;;;;;;;14.37;89.36;94953.16;6092386;23;20230;-88
2023/10/23 20:33:41;;;;;;;5.57;5.05;;;;;;;14.42;88.85;94944.78;6030671;23;20213;-88
2023/10/23 20:36:57;;;;;;;5.70;5.10;;;;;;;14.45;88.55;94933.97;6154984;22;20210;-88
2023/10/23 20:39:25;;;;;;;5.13;4.63;;;;;;;14.44;88.82;94930.59;6170771;23;20174;-89
2023/10/23 20:41:52;;;;;;;6.80;6.10;;;;;;;14.44;88.59;94940.16;6180035;23;20594;-88
2023/10/23 20:56:37;;;;;;;6.07;4.53;;;;;;;14.37;88.97;94932.44;6017052;23;20214;-89
2023/10/23 20:59:42;;;;;;;5.47;4.93;;;;;;;14.35;89.27;94924.09;6150596;23;20182;-90
2023/10/23 21:09:58;;;;;;;5.53;4.50;;;;;;;14.32;90.04;94934.88;5996998;23;20173;-90
2023/10/23 21:20:09;;;;;;;4.78;4.30;;;;;;;14.42;89.33;94919.69;5880034;24;20288;-91
2023/10/23 21:23:06;;;;;;;5.78;4.50;;;;;;;14.41;88.94;94918.09;6051899;23;20198;-89
2023/10/23 21:29:10;;;;;;;5.45;4.78;;;;;;;14.25;91.30;94959.25;6136838;23;20171;-92
2023/10/23 21:32:03;;;;;;;5.05;4.55;;;;;;;14.23;91.02;94951.72;6148533;23;20654;-89
2023/10/23 21:40:22;;;;;;;5.18;4.63;;;;;;;14.30;90.45;94949.84;6178083;23;20188;-89
2023/10/23 21:43:20;;;;;;;5.20;4.60;;;;;;;14.28;90.13;94951.84;6132185;23;20174;-90
2023/10/23 21:48:42;;;;;;;5.38;4.88;;;;;;;14.15;91.47;94959.75;6164475;23;20645;-90
2023/10/23 21:51:12;;;;;;;5.70;4.80;;;;;;;14.15;91.22;94954.59;6179863;23;20157;-90
2023/10/23 21:53:42;;;;;;;6.45;4.95;;;;;;;14.09;91.68;94963.97;6178718;23;20174;-91
2023/10/23 21:56:34;;;;;;;4.78;4.38;;;;;;;14.10;91.61;94970.75;6179439;23;20194;-92